sensor_id;sensor_type;location;lat;lon;timestamp;temperature;humidity
32187;DHT22;18686;53.084;8.872;2022-10-16T00:01:13;12.20;99.90
32187;DHT22;18686;53.084;8.872;2022-10-16T00:03:43;12.20;99.90
32187;DHT22;18686;53.084;8.872;2022-10-16T00:06:13;12.20;99.90
32187;DHT22;18686;53.084;8.872;2022-10-16T00:08:43;12.20;99.90
32187;DHT22;18686;53.084;8.872;2022-10-16T00:11:14;12.20;99.90
32187;DHT22;18686;53.084;8.872;2022-10-16T00:13:44;12.10;99.90
32187;DHT22;18686;53.084;8.872;2022-10-16T00:16:16;12.10;99.90
32187;DHT22;18686;53.084;8.872;2022-10-16T00:18:44;12.10;99.90
32187;DHT22;18686;53.084;8.872;2022-10-16T00:21:14;12.10;99.90
32187;DHT22;18686;53.084;8.872;2022-10-16T00:23:43;12.10;99.90
32187;DHT22;18686;53.084;8.872;2022-10-16T00:26:14;12.10;99.90
32187;DHT22;18686;53.084;8.872;2022-10-16T00:28:46;12.00;99.90
32187;DHT22;18686;53.084;8.872;2022-10-16T00:31:18;11.90;99.90
32187;DHT22;18686;53.084;8.872;2022-10-16T00:33:47;11.90;99.90
32187;DHT22;18686;53.084;8.872;2022-10-16T00:36:18;11.90;99.90
32187;DHT22;18686;53.084;8.872;2022-10-16T00:38:49;11.80;99.90
32187;DHT22;18686;53.084;8.872;2022-10-16T00:41:21;11.80;99.90
32187;DHT22;18686;53.084;8.872;2022-10-16T00:43:52;11.80;99.90
32187;DHT22;18686;53.084;8.872;2022-10-16T00:46:24;11.80;99.90
32187;DHT22;18686;53.084;8.872;2022-10-16T00:48:59;11.80;99.90
32187;DHT22;18686;53.084;8.872;2022-10-16T00:51:31;11.80;99.90
32187;DHT22;18686;53.084;8.872;2022-10-16T00:54:02;11.80;99.90
32187;DHT22;18686;53.084;8.872;2022-10-16T00:56:32;11.90;99.90
32187;DHT22;18686;53.084;8.872;2022-10-16T00:59:03;11.80;99.90
32187;DHT22;18686;53.084;8.872;2022-10-16T01:01:34;11.80;99.90
32187;DHT22;18686;53.084;8.872;2022-10-16T01:04:02;11.80;99.90
32187;DHT22;18686;53.084;8.872;2022-10-16T01:06:36;11.70;99.90
32187;DHT22;18686;53.084;8.872;2022-10-16T01:09:14;11.70;99.90
32187;DHT22;18686;53.084;8.872;2022-10-16T01:11:50;11.60;99.90
32187;DHT22;18686;53.084;8.872;2022-10-16T01:14:26;11.60;99.90
32187;DHT22;18686;53.084;8.872;2022-10-16T01:17:01;11.60;99.90
32187;DHT22;18686;53.084;8.872;2022-10-16T01:19:40;11.50;99.90
32187;DHT22;18686;53.084;8.872;2022-10-16T01:22:13;11.50;99.90
32187;DHT22;18686;53.084;8.872;2022-10-16T01:24:44;11.50;99.90
32187;DHT22;18686;53.084;8.872;2022-10-16T01:27:21;11.50;99.90
32187;DHT22;18686;53.084;8.872;2022-10-16T01:29:53;11.50;99.90
32187;DHT22;18686;53.084;8.872;2022-10-16T01:32:28;11.40;99.90
32187;DHT22;18686;53.084;8.872;2022-10-16T01:35:00;11.40;99.90
32187;DHT22;18686;53.084;8.872;2022-10-16T01:37:35;11.40;99.90
32187;DHT22;18686;53.084;8.872;2022-10-16T01:40:08;11.30;99.90
32187;DHT22;18686;53.084;8.872;2022-10-16T01:42:41;11.30;99.90
32187;DHT22;18686;53.084;8.872;2022-10-16T01:45:12;11.30;99.90
32187;DHT22;18686;53.084;8.872;2022-10-16T01:47:42;11.30;99.90
32187;DHT22;18686;53.084;8.872;2022-10-16T01:50:11;11.20;99.90
32187;DHT22;18686;53.084;8.872;2022-10-16T01:52:43;11.30;99.90
32187;DHT22;18686;53.084;8.872;2022-10-16T01:55:16;11.30;99.90
32187;DHT22;18686;53.084;8.872;2022-10-16T01:57:49;11.30;99.90
32187;DHT22;18686;53.084;8.872;2022-10-16T02:00:19;11.20;99.90
32187;DHT22;18686;53.084;8.872;2022-10-16T02:02:50;11.20;99.90
32187;DHT22;18686;53.084;8.872;2022-10-16T02:05:23;11.20;99.90
32187;DHT22;18686;53.084;8.872;2022-10-16T02:07:53;11.20;99.90
32187;DHT22;18686;53.084;8.872;2022-10-16T02:10:22;11.20;99.90
32187;DHT22;18686;53.084;8.872;2022-10-16T02:12:56;11.20;99.90
32187;DHT22;18686;53.084;8.872;2022-10-16T02:15:26;11.10;99.90
32187;DHT22;18686;53.084;8.872;2022-10-16T02:17:54;11.20;99.90
32187;DHT22;18686;53.084;8.872;2022-10-16T02:20:25;11.20;99.90
32187;DHT22;18686;53.084;8.872;2022-10-16T02:22:56;11.10;99.90
32187;DHT22;18686;53.084;8.872;2022-10-16T02:25:28;11.10;99.90
32187;DHT22;18686;53.084;8.872;2022-10-16T02:28:02;11.10;99.90
32187;DHT22;18686;53.084;8.872;2022-10-16T02:30:36;11.10;99.90
32187;DHT22;18686;53.084;8.872;2022-10-16T02:33:07;11.10;99.90
32187;DHT22;18686;53.084;8.872;2022-10-16T02:35:36;11.00;99.90
32187;DHT22;18686;53.084;8.872;2022-10-16T02:38:06;11.00;99.90
32187;DHT22;18686;53.084;8.872;2022-10-16T02:40:37;11.00;99.90
32187;DHT22;18686;53.084;8.872;2022-10-16T02:43:06;11.00;99.90
32187;DHT22;18686;53.084;8.872;2022-10-16T02:45:36;11.00;99.90
32187;DHT22;18686;53.084;8.872;2022-10-16T02:48:04;11.10;99.90
32187;DHT22;18686;53.084;8.872;2022-10-16T02:50:33;11.00;99.90
32187;DHT22;18686;53.084;8.872;2022-10-16T02:53:01;11.00;99.90
32187;DHT22;18686;53.084;8.872;2022-10-16T02:55:29;11.00;99.90
32187;DHT22;18686;53.084;8.872;2022-10-16T02:57:57;11.00;99.90
32187;DHT22;18686;53.084;8.872;2022-10-16T03:00:27;11.00;99.90
32187;DHT22;18686;53.084;8.872;2022-10-16T03:02:55;11.00;99.90
32187;DHT22;18686;53.084;8.872;2022-10-16T03:05:23;11.10;99.90
32187;DHT22;18686;53.084;8.872;2022-10-16T03:07:51;11.10;99.90
32187;DHT22;18686;53.084;8.872;2022-10-16T03:10:20;11.10;99.90
32187;DHT22;18686;53.084;8.872;2022-10-16T03:12:48;11.10;99.90
32187;DHT22;18686;53.084;8.872;2022-10-16T03:15:16;11.10;99.90
32187;DHT22;18686;53.084;8.872;2022-10-16T03:17:45;11.10;99.90
32187;DHT22;18686;53.084;8.872;2022-10-16T03:20:14;11.10;99.90
32187;DHT22;18686;53.084;8.872;2022-10-16T03:22:42;11.10;99.90
32187;DHT22;18686;53.084;8.872;2022-10-16T03:25:10;11.10;99.90
32187;DHT22;18686;53.084;8.872;2022-10-16T03:27:38;11.10;99.90
32187;DHT22;18686;53.084;8.872;2022-10-16T03:30:07;11.10;99.90
32187;DHT22;18686;53.084;8.872;2022-10-16T03:32:36;11.10;99.90
32187;DHT22;18686;53.084;8.872;2022-10-16T03:35:06;11.20;99.90
32187;DHT22;18686;53.084;8.872;2022-10-16T03:37:34;11.20;99.90
32187;DHT22;18686;53.084;8.872;2022-10-16T03:40:03;11.20;99.90
32187;DHT22;18686;53.084;8.872;2022-10-16T03:42:31;11.20;99.90
32187;DHT22;18686;53.084;8.872;2022-10-16T03:44:59;11.20;99.90
32187;DHT22;18686;53.084;8.872;2022-10-16T03:47:28;11.20;99.90
32187;DHT22;18686;53.084;8.872;2022-10-16T03:49:56;11.20;99.90
32187;DHT22;18686;53.084;8.872;2022-10-16T03:52:25;11.20;99.90
32187;DHT22;18686;53.084;8.872;2022-10-16T03:54:54;11.20;99.90
32187;DHT22;18686;53.084;8.872;2022-10-16T03:57:22;11.20;99.90
32187;DHT22;18686;53.084;8.872;2022-10-16T03:59:51;11.20;99.90
32187;DHT22;18686;53.084;8.872;2022-10-16T04:02:19;11.20;99.90
32187;DHT22;18686;53.084;8.872;2022-10-16T04:04:47;11.20;99.90
32187;DHT22;18686;53.084;8.872;2022-10-16T04:07:15;11.20;99.90
32187;DHT22;18686;53.084;8.872;2022-10-16T04:09:45;11.20;99.90
32187;DHT22;18686;53.084;8.872;2022-10-16T04:12:13;11.20;99.90
32187;DHT22;18686;53.084;8.872;2022-10-16T04:14:41;11.20;99.90
32187;DHT22;18686;53.084;8.872;2022-10-16T04:17:09;11.30;99.90
32187;DHT22;18686;53.084;8.872;2022-10-16T04:19:37;11.30;99.90
32187;DHT22;18686;53.084;8.872;2022-10-16T04:22:05;11.30;99.90
32187;DHT22;18686;53.084;8.872;2022-10-16T04:24:33;11.30;99.90
32187;DHT22;18686;53.084;8.872;2022-10-16T04:27:03;11.30;99.90
32187;DHT22;18686;53.084;8.872;2022-10-16T04:29:31;11.30;99.90
32187;DHT22;18686;53.084;8.872;2022-10-16T04:31:59;11.30;99.90
32187;DHT22;18686;53.084;8.872;2022-10-16T04:34:27;11.30;99.90
32187;DHT22;18686;53.084;8.872;2022-10-16T04:36:55;11.40;99.90
32187;DHT22;18686;53.084;8.872;2022-10-16T04:39:23;11.40;99.90
32187;DHT22;18686;53.084;8.872;2022-10-16T04:41:51;11.40;99.90
32187;DHT22;18686;53.084;8.872;2022-10-16T04:44:21;11.40;99.90
32187;DHT22;18686;53.084;8.872;2022-10-16T04:46:50;11.40;99.90
32187;DHT22;18686;53.084;8.872;2022-10-16T04:49:18;11.40;99.90
32187;DHT22;18686;53.084;8.872;2022-10-16T04:51:46;11.40;99.90
32187;DHT22;18686;53.084;8.872;2022-10-16T04:54:15;11.30;99.90
32187;DHT22;18686;53.084;8.872;2022-10-16T04:56:43;11.40;99.90
32187;DHT22;18686;53.084;8.872;2022-10-16T04:59:14;11.40;99.90
32187;DHT22;18686;53.084;8.872;2022-10-16T05:01:44;11.40;99.90
32187;DHT22;18686;53.084;8.872;2022-10-16T05:04:12;11.40;99.90
32187;DHT22;18686;53.084;8.872;2022-10-16T05:06:42;11.40;99.90
32187;DHT22;18686;53.084;8.872;2022-10-16T05:09:10;11.40;99.90
32187;DHT22;18686;53.084;8.872;2022-10-16T05:11:38;11.40;99.90
32187;DHT22;18686;53.084;8.872;2022-10-16T05:14:06;11.50;99.90
32187;DHT22;18686;53.084;8.872;2022-10-16T05:16:34;11.50;99.90
32187;DHT22;18686;53.084;8.872;2022-10-16T05:19:04;11.50;99.90
32187;DHT22;18686;53.084;8.872;2022-10-16T05:21:52;11.50;99.90
32187;DHT22;18686;53.084;8.872;2022-10-16T05:24:20;11.60;99.90
32187;DHT22;18686;53.084;8.872;2022-10-16T05:26:49;11.60;99.90
32187;DHT22;18686;53.084;8.872;2022-10-16T05:29:17;11.70;99.90
32187;DHT22;18686;53.084;8.872;2022-10-16T05:31:45;11.70;99.90
32187;DHT22;18686;53.084;8.872;2022-10-16T05:34:15;11.80;99.90
32187;DHT22;18686;53.084;8.872;2022-10-16T05:36:43;11.90;99.90
32187;DHT22;18686;53.084;8.872;2022-10-16T05:39:13;11.90;99.90
32187;DHT22;18686;53.084;8.872;2022-10-16T05:41:41;12.00;99.90
32187;DHT22;18686;53.084;8.872;2022-10-16T05:44:09;12.00;99.90
32187;DHT22;18686;53.084;8.872;2022-10-16T05:46:37;12.10;99.90
32187;DHT22;18686;53.084;8.872;2022-10-16T05:49:05;12.10;99.90
32187;DHT22;18686;53.084;8.872;2022-10-16T05:51:35;12.10;99.90
32187;DHT22;18686;53.084;8.872;2022-10-16T05:54:03;12.10;99.90
32187;DHT22;18686;53.084;8.872;2022-10-16T05:56:31;12.10;99.90
32187;DHT22;18686;53.084;8.872;2022-10-16T05:59:00;12.20;99.90
32187;DHT22;18686;53.084;8.872;2022-10-16T06:01:28;12.20;99.90
32187;DHT22;18686;53.084;8.872;2022-10-16T06:03:56;12.20;99.90
32187;DHT22;18686;53.084;8.872;2022-10-16T06:06:26;12.20;99.90
32187;DHT22;18686;53.084;8.872;2022-10-16T06:08:56;12.30;99.90
32187;DHT22;18686;53.084;8.872;2022-10-16T06:11:28;12.30;99.90
32187;DHT22;18686;53.084;8.872;2022-10-16T06:13:58;12.30;99.90
32187;DHT22;18686;53.084;8.872;2022-10-16T06:16:28;12.30;99.90
32187;DHT22;18686;53.084;8.872;2022-10-16T06:18:56;12.30;99.90
32187;DHT22;18686;53.084;8.872;2022-10-16T06:21:28;12.30;99.90
32187;DHT22;18686;53.084;8.872;2022-10-16T06:23:58;12.40;99.90
32187;DHT22;18686;53.084;8.872;2022-10-16T06:26:28;12.30;99.90
32187;DHT22;18686;53.084;8.872;2022-10-16T06:28:57;12.50;99.90
32187;DHT22;18686;53.084;8.872;2022-10-16T06:31:27;12.40;99.90
32187;DHT22;18686;53.084;8.872;2022-10-16T06:33:57;12.50;99.90
32187;DHT22;18686;53.084;8.872;2022-10-16T06:36:26;12.50;99.90
32187;DHT22;18686;53.084;8.872;2022-10-16T06:38:54;12.60;99.90
32187;DHT22;18686;53.084;8.872;2022-10-16T06:41:23;12.60;99.90
32187;DHT22;18686;53.084;8.872;2022-10-16T06:43:51;12.60;99.90
32187;DHT22;18686;53.084;8.872;2022-10-16T06:46:22;12.60;99.90
32187;DHT22;18686;53.084;8.872;2022-10-16T06:48:50;12.70;99.90
32187;DHT22;18686;53.084;8.872;2022-10-16T06:51:20;12.70;99.90
32187;DHT22;18686;53.084;8.872;2022-10-16T06:53:50;12.80;99.90
32187;DHT22;18686;53.084;8.872;2022-10-16T06:56:35;12.90;99.90
32187;DHT22;18686;53.084;8.872;2022-10-16T06:59:04;12.90;99.90
32187;DHT22;18686;53.084;8.872;2022-10-16T07:01:32;13.00;99.90
32187;DHT22;18686;53.084;8.872;2022-10-16T07:04:01;13.20;99.90
32187;DHT22;18686;53.084;8.872;2022-10-16T07:06:32;13.20;99.90
32187;DHT22;18686;53.084;8.872;2022-10-16T07:09:03;13.30;99.90
32187;DHT22;18686;53.084;8.872;2022-10-16T07:11:32;13.40;99.90
32187;DHT22;18686;53.084;8.872;2022-10-16T07:14:02;13.40;99.90
32187;DHT22;18686;53.084;8.872;2022-10-16T07:16:31;13.40;99.90
32187;DHT22;18686;53.084;8.872;2022-10-16T07:19:01;13.40;99.90
32187;DHT22;18686;53.084;8.872;2022-10-16T07:21:31;13.50;99.90
32187;DHT22;18686;53.084;8.872;2022-10-16T07:24:04;13.60;99.90
32187;DHT22;18686;53.084;8.872;2022-10-16T07:26:33;13.70;99.90
32187;DHT22;18686;53.084;8.872;2022-10-16T07:29:03;13.80;99.90
32187;DHT22;18686;53.084;8.872;2022-10-16T07:31:32;14.00;99.90
32187;DHT22;18686;53.084;8.872;2022-10-16T07:34:00;14.20;99.90
32187;DHT22;18686;53.084;8.872;2022-10-16T07:36:28;14.60;99.90
32187;DHT22;18686;53.084;8.872;2022-10-16T07:38:56;14.90;99.90
32187;DHT22;18686;53.084;8.872;2022-10-16T07:41:26;15.10;99.90
32187;DHT22;18686;53.084;8.872;2022-10-16T07:43:54;15.40;99.90
32187;DHT22;18686;53.084;8.872;2022-10-16T07:46:26;15.70;99.90
32187;DHT22;18686;53.084;8.872;2022-10-16T07:48:54;15.80;99.90
32187;DHT22;18686;53.084;8.872;2022-10-16T07:51:23;15.90;99.90
32187;DHT22;18686;53.084;8.872;2022-10-16T07:53:52;15.90;99.90
32187;DHT22;18686;53.084;8.872;2022-10-16T07:56:21;15.90;99.90
32187;DHT22;18686;53.084;8.872;2022-10-16T07:58:50;15.80;99.90
32187;DHT22;18686;53.084;8.872;2022-10-16T08:01:18;15.70;99.90
32187;DHT22;18686;53.084;8.872;2022-10-16T08:03:49;15.50;99.90
32187;DHT22;18686;53.084;8.872;2022-10-16T08:06:19;15.40;99.90
32187;DHT22;18686;53.084;8.872;2022-10-16T08:08:53;15.60;99.90
32187;DHT22;18686;53.084;8.872;2022-10-16T08:11:22;15.70;99.90
32187;DHT22;18686;53.084;8.872;2022-10-16T08:13:50;16.00;99.90
32187;DHT22;18686;53.084;8.872;2022-10-16T08:16:18;16.50;99.90
32187;DHT22;18686;53.084;8.872;2022-10-16T08:18:47;16.90;99.90
32187;DHT22;18686;53.084;8.872;2022-10-16T08:21:20;17.40;99.90
32187;DHT22;18686;53.084;8.872;2022-10-16T08:23:49;17.50;99.90
32187;DHT22;18686;53.084;8.872;2022-10-16T08:26:24;17.80;99.90
32187;DHT22;18686;53.084;8.872;2022-10-16T08:28:52;17.70;99.90
32187;DHT22;18686;53.084;8.872;2022-10-16T08:31:20;17.90;99.90
32187;DHT22;18686;53.084;8.872;2022-10-16T08:33:50;18.00;99.90
32187;DHT22;18686;53.084;8.872;2022-10-16T08:36:19;18.10;99.90
32187;DHT22;18686;53.084;8.872;2022-10-16T08:38:48;18.30;99.90
32187;DHT22;18686;53.084;8.872;2022-10-16T08:41:27;18.30;99.90
32187;DHT22;18686;53.084;8.872;2022-10-16T08:44:18;18.70;99.90
32187;DHT22;18686;53.084;8.872;2022-10-16T08:46:55;19.20;99.90
32187;DHT22;18686;53.084;8.872;2022-10-16T08:49:30;19.20;99.90
32187;DHT22;18686;53.084;8.872;2022-10-16T08:51:58;19.60;99.90
32187;DHT22;18686;53.084;8.872;2022-10-16T08:54:29;19.50;99.90
32187;DHT22;18686;53.084;8.872;2022-10-16T08:57:08;20.10;99.90
32187;DHT22;18686;53.084;8.872;2022-10-16T08:59:37;20.40;99.90
32187;DHT22;18686;53.084;8.872;2022-10-16T09:02:22;20.70;97.70
32187;DHT22;18686;53.084;8.872;2022-10-16T09:05:15;21.10;96.10
32187;DHT22;18686;53.084;8.872;2022-10-16T09:07:51;21.20;95.00
32187;DHT22;18686;53.084;8.872;2022-10-16T09:10:34;21.60;94.40
32187;DHT22;18686;53.084;8.872;2022-10-16T09:13:14;21.90;93.30
32187;DHT22;18686;53.084;8.872;2022-10-16T09:15:49;21.60;90.80
32187;DHT22;18686;53.084;8.872;2022-10-16T09:18:25;22.40;91.50
32187;DHT22;18686;53.084;8.872;2022-10-16T09:21:05;23.20;89.70
32187;DHT22;18686;53.084;8.872;2022-10-16T09:23:36;24.20;80.00
32187;DHT22;18686;53.084;8.872;2022-10-16T09:26:05;25.30;80.00
32187;DHT22;18686;53.084;8.872;2022-10-16T09:28:37;26.90;74.00
32187;DHT22;18686;53.084;8.872;2022-10-16T09:31:08;28.50;65.20
32187;DHT22;18686;53.084;8.872;2022-10-16T09:33:39;30.10;55.60
32187;DHT22;18686;53.084;8.872;2022-10-16T09:36:10;31.60;51.70
32187;DHT22;18686;53.084;8.872;2022-10-16T09:38:39;31.60;47.00
32187;DHT22;18686;53.084;8.872;2022-10-16T09:41:15;30.80;45.00
32187;DHT22;18686;53.084;8.872;2022-10-16T09:43:49;29.40;48.20
32187;DHT22;18686;53.084;8.872;2022-10-16T09:46:26;27.90;48.30
32187;DHT22;18686;53.084;8.872;2022-10-16T09:48:56;27.00;53.40
32187;DHT22;18686;53.084;8.872;2022-10-16T09:51:28;26.60;53.20
32187;DHT22;18686;53.084;8.872;2022-10-16T09:53:59;27.10;52.10
32187;DHT22;18686;53.084;8.872;2022-10-16T09:56:28;27.50;51.10
32187;DHT22;18686;53.084;8.872;2022-10-16T09:59:01;28.20;51.60
32187;DHT22;18686;53.084;8.872;2022-10-16T10:01:36;29.50;51.80
32187;DHT22;18686;53.084;8.872;2022-10-16T10:04:05;31.40;48.80
32187;DHT22;18686;53.084;8.872;2022-10-16T10:06:37;33.30;42.80
32187;DHT22;18686;53.084;8.872;2022-10-16T10:09:17;34.20;40.40
32187;DHT22;18686;53.084;8.872;2022-10-16T10:11:52;33.30;39.90
32187;DHT22;18686;53.084;8.872;2022-10-16T10:14:26;34.20;40.30
32187;DHT22;18686;53.084;8.872;2022-10-16T10:17:14;35.50;37.80
32187;DHT22;18686;53.084;8.872;2022-10-16T10:19:46;35.40;39.00
32187;DHT22;18686;53.084;8.872;2022-10-16T10:22:31;37.00;37.80
32187;DHT22;18686;53.084;8.872;2022-10-16T10:25:16;38.30;35.70
32187;DHT22;18686;53.084;8.872;2022-10-16T10:27:57;38.90;35.10
32187;DHT22;18686;53.084;8.872;2022-10-16T10:30:36;40.00;34.70
32187;DHT22;18686;53.084;8.872;2022-10-16T10:33:17;40.60;33.70
32187;DHT22;18686;53.084;8.872;2022-10-16T10:35:52;40.60;32.50
32187;DHT22;18686;53.084;8.872;2022-10-16T10:38:38;40.60;31.30
32187;DHT22;18686;53.084;8.872;2022-10-16T10:41:22;39.10;29.90
32187;DHT22;18686;53.084;8.872;2022-10-16T10:44:03;38.40;33.60
32187;DHT22;18686;53.084;8.872;2022-10-16T10:46:39;36.50;33.00
32187;DHT22;18686;53.084;8.872;2022-10-16T10:49:20;36.00;33.90
32187;DHT22;18686;53.084;8.872;2022-10-16T10:51:58;36.20;34.30
32187;DHT22;18686;53.084;8.872;2022-10-16T10:54:35;36.80;32.30
32187;DHT22;18686;53.084;8.872;2022-10-16T10:57:10;37.30;33.50
32187;DHT22;18686;53.084;8.872;2022-10-16T11:00:03;37.10;32.60
32187;DHT22;18686;53.084;8.872;2022-10-16T11:02:39;36.80;33.00
32187;DHT22;18686;53.084;8.872;2022-10-16T11:05:27;35.90;32.10
32187;DHT22;18686;53.084;8.872;2022-10-16T11:08:00;34.30;32.80
32187;DHT22;18686;53.084;8.872;2022-10-16T11:10:33;34.90;34.20
32187;DHT22;18686;53.084;8.872;2022-10-16T11:13:10;36.00;32.70
32187;DHT22;18686;53.084;8.872;2022-10-16T11:15:44;36.20;33.00
32187;DHT22;18686;53.084;8.872;2022-10-16T11:18:22;36.90;32.70
32187;DHT22;18686;53.084;8.872;2022-10-16T11:20:54;38.30;31.10
32187;DHT22;18686;53.084;8.872;2022-10-16T11:23:27;39.00;29.90
32187;DHT22;18686;53.084;8.872;2022-10-16T11:26:02;39.70;29.70
32187;DHT22;18686;53.084;8.872;2022-10-16T11:28:35;40.70;29.30
32187;DHT22;18686;53.084;8.872;2022-10-16T11:31:11;40.70;28.60
32187;DHT22;18686;53.084;8.872;2022-10-16T11:33:45;41.30;28.90
32187;DHT22;18686;53.084;8.872;2022-10-16T11:36:17;40.90;28.20
32187;DHT22;18686;53.084;8.872;2022-10-16T11:38:51;40.00;28.70
32187;DHT22;18686;53.084;8.872;2022-10-16T11:41:27;38.50;28.80
32187;DHT22;18686;53.084;8.872;2022-10-16T11:44:09;38.00;28.90
32187;DHT22;18686;53.084;8.872;2022-10-16T11:46:48;36.80;29.40
32187;DHT22;18686;53.084;8.872;2022-10-16T11:49:36;35.80;30.00
32187;DHT22;18686;53.084;8.872;2022-10-16T11:52:10;36.30;30.60
32187;DHT22;18686;53.084;8.872;2022-10-16T11:54:49;36.80;29.70
32187;DHT22;18686;53.084;8.872;2022-10-16T11:57:23;35.80;29.60
32187;DHT22;18686;53.084;8.872;2022-10-16T11:59:55;34.80;30.80
32187;DHT22;18686;53.084;8.872;2022-10-16T12:02:40;35.10;31.90
32187;DHT22;18686;53.084;8.872;2022-10-16T12:05:25;36.20;30.80
32187;DHT22;18686;53.084;8.872;2022-10-16T12:08:04;35.50;30.00
32187;DHT22;18686;53.084;8.872;2022-10-16T12:10:34;34.80;29.90
32187;DHT22;18686;53.084;8.872;2022-10-16T12:13:28;33.60;31.10
32187;DHT22;18686;53.084;8.872;2022-10-16T12:16:05;31.70;32.80
32187;DHT22;18686;53.084;8.872;2022-10-16T12:18:33;30.10;34.60
32187;DHT22;18686;53.084;8.872;2022-10-16T12:21:02;28.90;36.60
32187;DHT22;18686;53.084;8.872;2022-10-16T12:23:37;28.90;37.70
32187;DHT22;18686;53.084;8.872;2022-10-16T12:26:06;28.90;37.10
32187;DHT22;18686;53.084;8.872;2022-10-16T12:28:36;28.40;37.60
32187;DHT22;18686;53.084;8.872;2022-10-16T12:31:07;28.50;39.00
32187;DHT22;18686;53.084;8.872;2022-10-16T12:33:39;28.70;37.40
32187;DHT22;18686;53.084;8.872;2022-10-16T12:36:12;29.10;37.90
32187;DHT22;18686;53.084;8.872;2022-10-16T12:38:49;29.10;37.10
32187;DHT22;18686;53.084;8.872;2022-10-16T12:41:25;29.30;37.40
32187;DHT22;18686;53.084;8.872;2022-10-16T12:43:55;30.00;36.30
32187;DHT22;18686;53.084;8.872;2022-10-16T12:46:35;30.50;35.00
32187;DHT22;18686;53.084;8.872;2022-10-16T12:49:30;30.20;35.80
32187;DHT22;18686;53.084;8.872;2022-10-16T12:51:58;30.00;35.70
32187;DHT22;18686;53.084;8.872;2022-10-16T12:54:29;29.40;35.40
32187;DHT22;18686;53.084;8.872;2022-10-16T12:57:16;28.30;36.50
32187;DHT22;18686;53.084;8.872;2022-10-16T12:59:54;27.40;37.80
32187;DHT22;18686;53.084;8.872;2022-10-16T13:02:58;26.50;39.30
32187;DHT22;18686;53.084;8.872;2022-10-16T13:05:42;26.00;40.50
32187;DHT22;18686;53.084;8.872;2022-10-16T13:08:23;25.60;41.00
32187;DHT22;18686;53.084;8.872;2022-10-16T13:11:00;25.30;41.20
32187;DHT22;18686;53.084;8.872;2022-10-16T13:13:56;24.70;41.60
32187;DHT22;18686;53.084;8.872;2022-10-16T13:16:33;24.50;42.40
32187;DHT22;18686;53.084;8.872;2022-10-16T13:19:14;24.70;42.90
32187;DHT22;18686;53.084;8.872;2022-10-16T13:21:51;24.80;43.40
32187;DHT22;18686;53.084;8.872;2022-10-16T13:24:30;25.10;42.60
32187;DHT22;18686;53.084;8.872;2022-10-16T13:27:06;25.40;42.50
32187;DHT22;18686;53.084;8.872;2022-10-16T13:29:38;25.40;42.60
32187;DHT22;18686;53.084;8.872;2022-10-16T13:32:10;25.20;43.10
32187;DHT22;18686;53.084;8.872;2022-10-16T13:34:44;25.00;42.90
32187;DHT22;18686;53.084;8.872;2022-10-16T13:37:21;24.60;43.40
32187;DHT22;18686;53.084;8.872;2022-10-16T13:39:50;24.10;44.30
32187;DHT22;18686;53.084;8.872;2022-10-16T13:42:27;23.90;45.20
32187;DHT22;18686;53.084;8.872;2022-10-16T13:44:56;23.80;45.80
32187;DHT22;18686;53.084;8.872;2022-10-16T13:47:26;23.70;45.40
32187;DHT22;18686;53.084;8.872;2022-10-16T13:49:59;23.50;45.40
32187;DHT22;18686;53.084;8.872;2022-10-16T13:52:28;23.30;45.60
32187;DHT22;18686;53.084;8.872;2022-10-16T13:54:56;23.10;46.50
32187;DHT22;18686;53.084;8.872;2022-10-16T13:57:28;22.90;46.70
32187;DHT22;18686;53.084;8.872;2022-10-16T13:59:56;22.70;46.80
32187;DHT22;18686;53.084;8.872;2022-10-16T14:02:29;22.60;47.30
32187;DHT22;18686;53.084;8.872;2022-10-16T14:04:58;22.30;48.00
32187;DHT22;18686;53.084;8.872;2022-10-16T14:07:28;22.10;48.50
32187;DHT22;18686;53.084;8.872;2022-10-16T14:10:03;21.80;49.30
32187;DHT22;18686;53.084;8.872;2022-10-16T14:12:31;21.60;50.60
32187;DHT22;18686;53.084;8.872;2022-10-16T14:15:00;21.40;50.60
32187;DHT22;18686;53.084;8.872;2022-10-16T14:17:33;21.20;51.00
32187;DHT22;18686;53.084;8.872;2022-10-16T14:20:05;20.90;51.20
32187;DHT22;18686;53.084;8.872;2022-10-16T14:22:34;20.60;51.50
32187;DHT22;18686;53.084;8.872;2022-10-16T14:25:20;20.50;52.10
32187;DHT22;18686;53.084;8.872;2022-10-16T14:27:58;20.40;52.50
32187;DHT22;18686;53.084;8.872;2022-10-16T14:30:29;20.30;52.80
32187;DHT22;18686;53.084;8.872;2022-10-16T14:33:00;20.20;53.20
32187;DHT22;18686;53.084;8.872;2022-10-16T14:35:30;20.10;53.50
32187;DHT22;18686;53.084;8.872;2022-10-16T14:38:00;20.00;53.50
32187;DHT22;18686;53.084;8.872;2022-10-16T14:40:30;19.90;54.50
32187;DHT22;18686;53.084;8.872;2022-10-16T14:42:58;19.70;53.60
32187;DHT22;18686;53.084;8.872;2022-10-16T14:45:29;19.60;53.50
32187;DHT22;18686;53.084;8.872;2022-10-16T14:48:02;19.40;54.10
32187;DHT22;18686;53.084;8.872;2022-10-16T14:50:31;19.30;54.50
32187;DHT22;18686;53.084;8.872;2022-10-16T14:53:04;19.30;55.40
32187;DHT22;18686;53.084;8.872;2022-10-16T14:55:36;19.20;54.80
32187;DHT22;18686;53.084;8.872;2022-10-16T14:58:05;19.10;54.80
32187;DHT22;18686;53.084;8.872;2022-10-16T15:00:33;19.00;55.10
32187;DHT22;18686;53.084;8.872;2022-10-16T15:03:02;19.00;55.70
32187;DHT22;18686;53.084;8.872;2022-10-16T15:05:30;18.90;55.20
32187;DHT22;18686;53.084;8.872;2022-10-16T15:07:59;18.80;55.80
32187;DHT22;18686;53.084;8.872;2022-10-16T15:10:28;18.70;57.00
32187;DHT22;18686;53.084;8.872;2022-10-16T15:12:58;18.60;56.70
32187;DHT22;18686;53.084;8.872;2022-10-16T15:15:37;18.40;57.10
32187;DHT22;18686;53.084;8.872;2022-10-16T15:18:07;18.30;57.50
32187;DHT22;18686;53.084;8.872;2022-10-16T15:20:37;18.20;58.50
32187;DHT22;18686;53.084;8.872;2022-10-16T15:23:10;18.10;59.30
32187;DHT22;18686;53.084;8.872;2022-10-16T15:25:43;17.90;59.30
32187;DHT22;18686;53.084;8.872;2022-10-16T15:28:13;17.80;59.80
32187;DHT22;18686;53.084;8.872;2022-10-16T15:30:41;17.60;60.00
32187;DHT22;18686;53.084;8.872;2022-10-16T15:33:14;17.50;61.00
32187;DHT22;18686;53.084;8.872;2022-10-16T15:35:46;17.40;61.50
32187;DHT22;18686;53.084;8.872;2022-10-16T15:38:15;17.30;61.60
32187;DHT22;18686;53.084;8.872;2022-10-16T15:40:43;17.10;62.30
32187;DHT22;18686;53.084;8.872;2022-10-16T15:43:11;17.00;63.10
32187;DHT22;18686;53.084;8.872;2022-10-16T15:45:40;16.90;64.10
32187;DHT22;18686;53.084;8.872;2022-10-16T15:48:10;16.80;64.70
32187;DHT22;18686;53.084;8.872;2022-10-16T15:50:41;16.60;65.20
32187;DHT22;18686;53.084;8.872;2022-10-16T15:53:10;16.50;65.90
32187;DHT22;18686;53.084;8.872;2022-10-16T15:55:38;16.40;66.40
32187;DHT22;18686;53.084;8.872;2022-10-16T15:58:06;16.20;68.00
32187;DHT22;18686;53.084;8.872;2022-10-16T16:00:34;16.10;68.80